Time;durP1;ratioP1;P1;durP2;ratioP2;P2;SDS_P1;SDS_P2;PMS_P1;PMS_P2;Temp;Humidity;BMP_temperature;BMP_pressure;BME280_temperature;BME280_humidity;BME280_pressure;Samples;Min_cycle;Max_cycle;Signal;HPM_P1;HPM_P2
2021/10/29 00:04:31;;;;;;;6.93;4.73;;;;;11.10;100362.00;;;;9839609;30;20286;-77
2021/10/29 00:09:33;;;;;;;6.90;5.10;;;;;11.10;100361.00;;;;9854113;30;20262;-77
2021/10/29 00:14:35;;;;;;;8.10;5.10;;;;;11.00;100362.00;;;;9824885;30;20228;-77
2021/10/29 00:19:37;;;;;;;8.80;5.73;;;;;10.90;100371.00;;;;9824840;30;20262;-77
2021/10/29 00:24:39;;;;;;;7.40;5.43;;;;;10.80;100378.00;;;;9836375;30;20277;-77
2021/10/29 00:29:41;;;;;;;8.87;4.70;;;;;10.70;100378.00;;;;9824648;30;20251;-77
2021/10/29 00:34:43;;;;;;;6.10;4.87;;;;;10.70;100381.00;;;;9839976;30;20232;-77
2021/10/29 00:39:45;;;;;;;11.63;5.50;;;;;10.70;100384.00;;;;9795596;30;20226;-76
2021/10/29 00:44:47;;;;;;;10.03;5.43;;;;;10.60;100375.00;;;;9824382;30;20236;-77
2021/10/29 00:49:49;;;;;;;7.30;5.40;;;;;10.60;100374.00;;;;9802309;30;20256;-77
2021/10/29 00:54:51;;;;;;;6.63;4.93;;;;;10.60;100365.00;;;;9860165;30;20230;-77
2021/10/29 00:59:53;;;;;;;6.80;5.07;;;;;10.60;100365.00;;;;9860348;30;20208;-77
2021/10/29 01:04:56;;;;;;;7.47;6.03;;;;;10.60;100356.00;;;;9889823;30;20287;-78
2021/10/29 01:09:59;;;;;;;6.60;4.90;;;;;10.70;100362.00;;;;9859443;30;20300;-78
2021/10/29 01:15:03;;;;;;;6.30;5.13;;;;;10.70;100354.00;;;;9845352;30;20569;-78
2021/10/29 01:20:06;;;;;;;7.97;5.57;;;;;10.70;100349.00;;;;9845220;30;20332;-78
2021/10/29 01:25:10;;;;;;;6.93;5.47;;;;;10.70;100344.00;;;;9844734;30;20303;-78
2021/10/29 01:30:13;;;;;;;6.83;5.07;;;;;10.70;100339.00;;;;9842471;30;20235;-78
2021/10/29 01:35:16;;;;;;;6.93;5.63;;;;;10.70;100346.00;;;;9849966;30;20205;-78
2021/10/29 01:40:18;;;;;;;8.03;5.90;;;;;10.70;100344.00;;;;9820832;30;20206;-79
2021/10/29 01:45:20;;;;;;;10.07;5.43;;;;;10.80;100334.00;;;;9872985;30;20239;-78
2021/10/29 01:50:22;;;;;;;7.33;5.00;;;;;10.70;100339.00;;;;9844424;30;20242;-78
2021/10/29 01:55:23;;;;;;;8.10;5.40;;;;;10.70;100334.00;;;;9822078;30;20205;-78
2021/10/29 02:00:25;;;;;;;8.03;4.97;;;;;10.70;100321.00;;;;9843552;30;20200;-78
2021/10/29 02:05:30;;;;;;;8.00;5.70;;;;;10.60;100307.00;;;;9843115;30;20213;-79
2021/10/29 02:10:32;;;;;;;7.50;5.17;;;;;10.60;100305.00;;;;9821450;30;20263;-78
2021/10/29 02:15:34;;;;;;;7.53;5.80;;;;;10.60;100298.00;;;;9809976;30;20196;-78
2021/10/29 02:20:36;;;;;;;8.10;5.93;;;;;10.60;100282.00;;;;9857803;30;20239;-78
2021/10/29 02:25:43;;;;;;;5.93;5.03;;;;;10.60;100283.00;;;;9842623;30;20248;-79
2021/10/29 02:30:46;;;;;;;8.10;5.30;;;;;10.60;100286.00;;;;9842037;30;20216;-78
2021/10/29 02:35:48;;;;;;;9.30;5.47;;;;;10.50;100283.00;;;;9808086;30;20202;-78
2021/10/29 02:40:52;;;;;;;7.67;4.80;;;;;10.50;100275.00;;;;9820247;30;20207;-78
2021/10/29 02:45:54;;;;;;;7.27;5.20;;;;;10.50;100274.00;;;;9826148;30;20228;-78
2021/10/29 02:50:56;;;;;;;8.33;5.60;;;;;10.50;100272.00;;;;9842167;30;20204;-78
2021/10/29 02:56:00;;;;;;;8.90;5.40;;;;;10.50;100266.00;;;;9826434;30;20301;-78
2021/10/29 03:01:02;;;;;;;8.40;5.07;;;;;10.50;100268.00;;;;9834102;30;20201;-78
2021/10/29 03:06:05;;;;;;;6.60;5.13;;;;;10.60;100262.00;;;;9840987;30;20258;-78
2021/10/29 03:11:06;;;;;;;9.43;5.10;;;;;10.60;100268.00;;;;9855784;30;20276;-78
2021/10/29 03:16:08;;;;;;;7.37;5.20;;;;;10.60;100257.00;;;;9826237;30;20208;-78
2021/10/29 03:21:10;;;;;;;6.53;4.50;;;;;10.50;100256.00;;;;9840727;30;20254;-78
2021/10/29 03:26:12;;;;;;;6.83;5.03;;;;;10.60;100252.00;;;;9856219;30;20657;-78
2021/10/29 03:31:15;;;;;;;7.27;5.00;;;;;10.60;100254.00;;;;9851076;30;20209;-78
2021/10/29 03:36:17;;;;;;;7.83;5.07;;;;;10.60;100237.00;;;;9855067;30;20584;-78
2021/10/29 03:41:24;;;;;;;9.30;5.23;;;;;10.50;100248.00;;;;9840147;30;20204;-78
2021/10/29 03:46:28;;;;;;;8.03;5.20;;;;;10.50;100241.00;;;;9854523;30;20311;-79
2021/10/29 03:51:37;;;;;;;8.40;5.40;;;;;10.40;100239.00;;;;9839775;30;20205;-78
2021/10/29 03:56:44;;;;;;;9.97;5.13;;;;;10.40;100233.00;;;;9854764;30;20265;-78
2021/10/29 04:01:46;;;;;;;7.90;4.40;;;;;10.40;100233.00;;;;9824693;30;20283;-78
2021/10/29 04:06:48;;;;;;;9.60;5.43;;;;;10.40;100220.00;;;;9854095;30;20204;-78
2021/10/29 04:11:51;;;;;;;9.03;4.90;;;;;10.50;100226.00;;;;9853168;30;20287;-78
2021/10/29 04:16:53;;;;;;;9.03;5.40;;;;;10.50;100229.00;;;;9839006;30;20208;-79
2021/10/29 04:21:57;;;;;;;9.93;4.83;;;;;10.50;100219.00;;;;9853760;30;20347;-78
2021/10/29 04:27:01;;;;;;;6.87;4.97;;;;;10.50;100224.00;;;;9853940;30;20246;-78
2021/10/29 04:32:03;;;;;;;7.27;5.30;;;;;10.60;100214.00;;;;9838787;30;20828;-78
2021/10/29 04:37:05;;;;;;;9.93;5.33;;;;;10.60;100202.00;;;;9838820;30;20204;-78
2021/10/29 04:42:07;;;;;;;7.40;4.63;;;;;10.60;100199.00;;;;9853502;30;20672;-78
2021/10/29 04:47:09;;;;;;;8.80;5.03;;;;;10.50;100201.00;;;;9853511;30;20994;-78
2021/10/29 04:52:10;;;;;;;7.67;4.67;;;;;10.50;100191.00;;;;9839382;30;20212;-78
2021/10/29 04:57:13;;;;;;;9.43;5.57;;;;;10.50;100186.00;;;;9853390;30;20580;-78
2021/10/29 05:02:15;;;;;;;7.43;4.77;;;;;10.50;100190.00;;;;9838545;30;20232;-78
2021/10/29 05:07:17;;;;;;;9.47;5.43;;;;;10.50;100184.00;;;;9838329;30;20197;-78
2021/10/29 05:12:19;;;;;;;5.87;4.40;;;;;10.50;100180.00;;;;9823649;30;20200;-78
2021/10/29 05:17:21;;;;;;;11.43;5.43;;;;;10.50;100169.00;;;;9852445;30;20236;-78
2021/10/29 05:22:23;;;;;;;9.03;5.07;;;;;10.50;100162.00;;;;9828455;30;20288;-78
2021/10/29 05:27:25;;;;;;;7.57;4.97;;;;;10.50;100164.00;;;;9844351;30;20239;-78
2021/10/29 05:32:27;;;;;;;7.80;4.60;;;;;10.50;100160.00;;;;9859036;30;20696;-78
2021/10/29 05:37:31;;;;;;;6.53;4.87;;;;;10.50;100161.00;;;;9844541;30;20204;-78
2021/10/29 05:42:34;;;;;;;7.67;4.33;;;;;10.50;100162.00;;;;9844402;30;20220;-78
2021/10/29 05:47:38;;;;;;;10.17;4.80;;;;;10.40;100147.00;;;;9873534;30;20220;-78
2021/10/29 05:52:43;;;;;;;9.50;4.90;;;;;10.40;100158.00;;;;9844060;30;20204;-78
2021/10/29 05:57:49;;;;;;;6.70;4.87;;;;;10.40;100144.00;;;;9829554;30;20204;-78
2021/10/29 06:02:51;;;;;;;6.27;4.60;;;;;10.40;100154.00;;;;9844206;30;20224;-78
2021/10/29 06:07:53;;;;;;;11.07;5.17;;;;;10.40;100138.00;;;;9829515;30;20631;-78
2021/10/29 06:12:55;;;;;;;5.67;4.60;;;;;10.40;100151.00;;;;9828538;30;20654;-79
2021/10/29 06:17:58;;;;;;;8.53;4.60;;;;;10.40;100142.00;;;;9864551;30;20254;-78
2021/10/29 06:23:04;;;;;;;9.73;4.93;;;;;10.40;100132.00;;;;9842730;30;20208;-78
2021/10/29 06:33:18;;;;;;;7.77;5.90;;;;;10.50;100125.00;;;;9813994;30;20323;-78
2021/10/29 06:38:21;;;;;;;7.20;5.67;;;;;10.50;100126.00;;;;9841988;30;20212;-78
2021/10/29 06:43:26;;;;;;;7.87;5.10;;;;;10.50;100125.00;;;;9871635;30;20220;-78
2021/10/29 07:04:38;;;;;;;7.03;5.07;;;;;10.70;100125.00;;;;9854770;30;20224;-78
2021/10/29 07:41:50;;;;;;;7.80;5.30;;;;;11.50;100114.00;;;;9825285;30;20209;-78
2021/10/29 07:46:53;;;;;;;11.53;5.00;;;;;11.70;100114.00;;;;9822552;30;20252;-78
2021/10/29 07:51:56;;;;;;;8.97;4.90;;;;;11.90;100107.00;;;;9789271;30;20204;-78
2021/10/29 07:56:59;;;;;;;11.97;4.70;;;;;12.10;100113.00;;;;9825151;30;20246;-78
2021/10/29 08:02:01;;;;;;;7.53;5.20;;;;;12.30;100107.00;;;;9813193;30;20204;-79
2021/10/29 08:07:03;;;;;;;7.53;4.60;;;;;12.60;100099.00;;;;9854330;30;20302;-78
2021/10/29 08:12:06;;;;;;;10.27;4.77;;;;;12.90;100097.00;;;;9839641;30;20204;-78
2021/10/29 08:17:08;;;;;;;5.43;4.17;;;;;13.10;100092.00;;;;9850939;30;20197;-78
2021/10/29 08:22:10;;;;;;;9.30;4.40;;;;;13.60;100096.00;;;;9821869;30;20231;-78
2021/10/29 08:27:12;;;;;;;7.70;3.43;;;;;14.10;100087.00;;;;9802824;30;20240;-78
2021/10/29 08:32:15;;;;;;;4.73;3.63;;;;;14.50;100073.00;;;;9834296;30;20231;-78
2021/10/29 08:37:17;;;;;;;9.67;4.03;;;;;14.80;100067.00;;;;9817686;30;20294;-78
2021/10/29 08:42:19;;;;;;;7.40;3.53;;;;;15.20;100070.00;;;;9832236;30;20287;-78
2021/10/29 08:47:23;;;;;;;7.00;3.60;;;;;15.60;100063.00;;;;9845445;30;20220;-78
2021/10/29 08:52:25;;;;;;;7.97;3.25;;;;;15.80;100064.00;;;;9853770;30;20607;-79
2021/10/29 08:57:28;;;;;;;4.03;3.00;;;;;15.80;100063.00;;;;9842994;30;20242;-79
2021/10/29 09:02:33;;;;;;;4.88;3.35;;;;;16.20;100062.00;;;;9859389;30;20213;-78
2021/10/29 09:07:41;;;;;;;9.13;4.03;;;;;16.60;100050.00;;;;9840328;30;20298;-78
2021/10/29 09:34:23;;;;;;;6.97;3.30;;;;;17.20;100061.00;;;;9844338;30;20258;-78
2021/10/29 09:39:29;;;;;;;4.47;3.17;;;;;17.40;100058.00;;;;9824067;30;20336;-78
2021/10/29 09:44:46;;;;;;;4.47;3.28;;;;;17.60;100052.00;;;;9822544;30;20318;-78
2021/10/29 09:50:05;;;;;;;7.45;2.97;;;;;17.80;100051.00;;;;9825524;30;20216;-78
2021/10/29 10:00:12;;;;;;;5.53;2.85;;;;;18.20;100024.00;;;;9829128;30;20204;-78
2021/10/29 10:05:18;;;;;;;4.45;2.60;;;;;18.40;100015.00;;;;9843008;30;20299;-79
2021/10/29 10:10:20;;;;;;;6.15;2.78;;;;;18.60;99990.00;;;;9843323;30;20234;-78
2021/10/29 10:15:22;;;;;;;6.55;2.60;;;;;18.80;99999.00;;;;9828549;30;20271;-78
2021/10/29 10:20:25;;;;;;;3.55;2.45;;;;;19.00;100013.00;;;;9828307;30;20239;-79
2021/10/29 10:46:54;;;;;;;5.95;2.85;;;;;20.20;100000.00;;;;9870672;30;20296;-78
2021/10/29 10:52:27;;;;;;;5.03;2.75;;;;;20.40;99997.00;;;;9817285;30;20255;-78
2021/10/29 11:03:47;;;;;;;5.53;2.97;;;;;20.50;99983.00;;;;9853841;30;20204;-76
2021/10/29 11:13:44;;;;;;;8.60;2.92;;;;;20.50;99973.00;;;;9856019;30;20250;-75
2021/10/29 11:19:04;;;;;;;3.53;2.67;;;;;20.60;99968.00;;;;9855030;30;20197;-75
2021/10/29 11:24:09;;;;;;;4.25;2.35;;;;;20.50;99962.00;;;;9793999;30;20213;-78
2021/10/29 11:29:12;;;;;;;10.48;3.08;;;;;20.70;99944.00;;;;9798652;29;20216;-78
2021/10/29 11:34:16;;;;;;;8.00;2.85;;;;;20.70;99940.00;;;;9854919;30;20581;-78
2021/10/29 11:39:23;;;;;;;8.25;2.90;;;;;20.80;99932.00;;;;9863417;30;20201;-78
2021/10/29 11:44:25;;;;;;;4.18;2.55;;;;;20.80;99925.00;;;;9803878;30;20227;-76
2021/10/29 11:49:29;;;;;;;6.35;2.90;;;;;20.90;99926.00;;;;9817671;30;20225;-75
2021/10/29 11:54:38;;;;;;;3.50;2.50;;;;;21.00;99933.00;;;;9827214;30;20204;-76
2021/10/29 12:10:20;;;;;;;4.80;2.50;;;;;21.30;99901.00;;;;9869692;30;20309;-75
2021/10/29 12:15:26;;;;;;;7.35;2.50;;;;;21.20;99888.00;;;;9839431;30;20625;-78
2021/10/29 12:20:36;;;;;;;7.75;2.47;;;;;21.10;99893.00;;;;9825331;30;20209;-78
2021/10/29 12:25:44;;;;;;;6.32;2.67;;;;;20.80;99900.00;;;;9806795;30;20252;-75
2021/10/29 13:03:04;;;;;;;8.43;2.45;;;;;19.40;99891.00;;;;9845283;30;20213;-78
2021/10/29 13:08:20;;;;;;;3.63;2.75;;;;;19.30;99896.00;;;;9845075;30;20261;-78
2021/10/29 13:13:33;;;;;;;4.28;2.55;;;;;19.10;99908.00;;;;9845174;30;20742;-78
2021/10/29 13:24:08;;;;;;;10.32;2.90;;;;;18.40;99908.00;;;;9807903;30;20221;-78
2021/10/29 14:37:28;;;;;;;3.85;2.03;;;;;17.00;99933.00;;;;9838726;30;20189;-78
2021/10/29 14:42:35;;;;;;;3.92;2.20;;;;;16.90;99934.00;;;;9868541;30;20652;-78
2021/10/29 15:46:16;;;;;;;4.83;3.03;;;;;14.10;99945.00;;;;9835428;30;20323;-79
2021/10/29 15:51:18;;;;;;;6.80;3.70;;;;;14.20;99923.00;;;;9823740;30;20234;-78
2021/10/29 16:01:40;;;;;;;7.30;3.70;;;;;14.00;99926.00;;;;9834646;30;20270;-78
2021/10/29 16:17:23;;;;;;;5.37;3.07;;;;;13.90;99944.00;;;;9831871;30;20557;-78
2021/10/29 16:22:27;;;;;;;7.43;3.97;;;;;13.90;99951.00;;;;9814026;30;20295;-78
2021/10/29 16:32:53;;;;;;;5.13;3.77;;;;;13.90;99946.00;;;;9865586;29;20240;-78
2021/10/29 16:37:55;;;;;;;6.10;4.53;;;;;13.80;99941.00;;;;9825838;30;20198;-78
2021/10/29 16:42:57;;;;;;;6.70;4.63;;;;;13.80;99948.00;;;;9849235;30;20666;-78
2021/10/29 16:48:03;;;;;;;7.13;4.10;;;;;13.80;99948.00;;;;9812765;30;20771;-77
2021/10/29 16:53:08;;;;;;;7.50;4.60;;;;;13.70;99944.00;;;;9828683;30;20217;-78
2021/10/29 16:58:13;;;;;;;8.20;4.33;;;;;13.80;99957.00;;;;9794162;30;20205;-78
2021/10/29 17:03:15;;;;;;;6.90;4.83;;;;;13.70;99966.00;;;;9837372;30;20288;-78
2021/10/29 17:08:17;;;;;;;7.90;4.70;;;;;13.60;99969.00;;;;9818120;30;20258;-79
2021/10/29 17:13:19;;;;;;;9.30;5.23;;;;;13.60;99979.00;;;;9847118;30;20204;-79
2021/10/29 17:18:21;;;;;;;8.27;5.70;;;;;13.60;99973.00;;;;9838795;30;20212;-79
2021/10/29 17:23:23;;;;;;;10.27;6.17;;;;;13.60;99983.00;;;;9801077;30;20791;-78
2021/10/29 17:28:25;;;;;;;10.47;5.60;;;;;13.60;99979.00;;;;9831491;29;20208;-79
2021/10/29 17:33:27;;;;;;;9.33;6.13;;;;;13.60;99981.00;;;;9841168;30;20268;-78
2021/10/29 17:38:29;;;;;;;8.17;5.57;;;;;13.60;99976.00;;;;9853500;30;20266;-79
2021/10/29 17:43:31;;;;;;;9.27;6.93;;;;;13.60;99959.00;;;;9846287;30;20297;-79
2021/10/29 17:48:34;;;;;;;10.20;6.50;;;;;13.60;99958.00;;;;9837220;30;20231;-78
2021/10/29 17:53:36;;;;;;;9.17;5.23;;;;;13.60;99970.00;;;;9815906;30;20258;-79
2021/10/29 17:58:37;;;;;;;5.93;4.73;;;;;13.60;99985.00;;;;9841608;30;20232;-78
2021/10/29 18:03:41;;;;;;;8.43;5.20;;;;;13.60;100012.00;;;;9864411;30;20634;-79
2021/10/29 18:08:51;;;;;;;8.07;5.90;;;;;13.60;100038.00;;;;9835565;30;20204;-79
2021/10/29 18:13:53;;;;;;;7.73;5.30;;;;;13.60;100045.00;;;;9872674;29;20204;-79
2021/10/29 18:18:56;;;;;;;8.30;4.90;;;;;13.60;100033.00;;;;9836439;30;20231;-78
2021/10/29 18:23:58;;;;;;;7.43;4.27;;;;;13.60;100056.00;;;;9839534;30;20275;-79
2021/10/29 18:29:02;;;;;;;6.83;4.20;;;;;13.60;100061.00;;;;9814165;30;20216;-79
2021/10/29 18:34:05;;;;;;;6.37;4.43;;;;;13.60;100062.00;;;;9862275;30;20200;-79
2021/10/29 18:39:07;;;;;;;5.77;4.57;;;;;13.50;100057.00;;;;9844288;30;20230;-79
2021/10/29 18:44:09;;;;;;;6.83;4.10;;;;;13.50;100064.00;;;;9806409;30;20657;-79
2021/10/29 18:49:11;;;;;;;6.27;4.87;;;;;13.40;100074.00;;;;9805674;30;20251;-79
2021/10/29 18:54:13;;;;;;;5.73;4.07;;;;;13.30;100081.00;;;;9850414;30;20209;-79
2021/10/29 18:59:16;;;;;;;7.60;4.33;;;;;13.30;100070.00;;;;9822029;30;20201;-80
2021/10/29 19:04:19;;;;;;;5.70;3.70;;;;;13.30;100058.00;;;;9853672;30;20216;-80
2021/10/29 19:09:21;;;;;;;4.27;3.60;;;;;13.20;100069.00;;;;9838117;30;20204;-80
2021/10/29 19:14:23;;;;;;;5.67;4.17;;;;;13.20;100078.00;;;;9837955;30;20204;-79
2021/10/29 19:19:25;;;;;;;6.93;4.50;;;;;13.10;100069.00;;;;9832001;30;20229;-79
2021/10/29 19:24:27;;;;;;;4.90;3.83;;;;;13.10;100080.00;;;;9809875;30;20751;-79
2021/10/29 19:29:29;;;;;;;5.23;3.67;;;;;13.10;100081.00;;;;9801814;29;20573;-79
2021/10/29 19:34:32;;;;;;;5.57;3.90;;;;;13.00;100090.00;;;;9829757;30;20718;-79
2021/10/29 19:39:39;;;;;;;6.90;4.03;;;;;13.00;100103.00;;;;9848080;30;20204;-79
2021/10/29 19:44:42;;;;;;;7.93;4.13;;;;;12.90;100106.00;;;;9851748;30;20208;-79
2021/10/29 19:49:44;;;;;;;8.27;4.47;;;;;12.80;100100.00;;;;9859797;30;20726;-79
2021/10/29 19:54:49;;;;;;;5.57;3.63;;;;;12.70;100094.00;;;;9854217;30;20200;-79
2021/10/29 19:59:52;;;;;;;4.90;4.00;;;;;12.70;100104.00;;;;9829458;30;20192;-79
2021/10/29 20:04:55;;;;;;;8.53;4.03;;;;;12.60;100108.00;;;;9818634;30;20208;-79
2021/10/29 20:09:57;;;;;;;6.60;4.07;;;;;12.50;100097.00;;;;9830086;30;20283;-79
2021/10/29 20:15:03;;;;;;;6.73;4.30;;;;;12.50;100100.00;;;;9832717;30;20211;-78
2021/10/29 20:20:14;;;;;;;4.67;3.87;;;;;12.40;100093.00;;;;9827687;30;20640;-78
2021/10/29 20:25:16;;;;;;;3.93;3.23;;;;;12.40;100098.00;;;;9823405;30;20220;-79
2021/10/29 20:30:18;;;;;;;4.83;3.53;;;;;12.40;100094.00;;;;9850758;30;20243;-78
2021/10/29 20:35:22;;;;;;;5.27;3.30;;;;;12.30;100096.00;;;;9840201;30;20215;-79
2021/10/29 20:40:28;;;;;;;6.10;3.97;;;;;12.20;100105.00;;;;9828390;30;20196;-78
2021/10/29 20:45:31;;;;;;;3.80;3.23;;;;;12.20;100099.00;;;;9806426;30;20232;-79
2021/10/29 20:50:34;;;;;;;5.60;3.23;;;;;12.10;100105.00;;;;9831062;30;20403;-78
2021/10/29 20:55:35;;;;;;;4.50;3.03;;;;;12.00;100102.00;;;;9857365;30;20231;-78
2021/10/29 21:00:37;;;;;;;4.13;3.47;;;;;11.90;100110.00;;;;9824407;30;20201;-78
2021/10/29 21:05:41;;;;;;;5.40;2.67;;;;;11.90;100111.00;;;;9853218;30;20274;-79
2021/10/29 21:10:43;;;;;;;7.03;3.73;;;;;11.90;100105.00;;;;9841229;30;20208;-78
2021/10/29 21:15:45;;;;;;;5.50;3.37;;;;;11.80;100099.00;;;;9795725;30;20197;-77
2021/10/29 21:20:47;;;;;;;4.93;3.53;;;;;11.80;100108.00;;;;9833634;30;20200;-78
2021/10/29 21:25:58;;;;;;;5.80;3.60;;;;;11.70;100091.00;;;;9855421;30;20239;-78
2021/10/29 21:31:02;;;;;;;5.00;3.33;;;;;11.70;100093.00;;;;9844819;30;20274;-78
2021/10/29 21:36:05;;;;;;;6.00;3.63;;;;;11.60;100092.00;;;;9850598;30;20197;-78
2021/10/29 21:41:07;;;;;;;5.00;3.53;;;;;11.60;100088.00;;;;9818226;30;20204;-79
2021/10/29 21:46:09;;;;;;;4.60;3.90;;;;;11.50;100080.00;;;;9847611;30;20316;-78
2021/10/29 21:51:12;;;;;;;5.20;3.80;;;;;11.50;100080.00;;;;9838487;30;20295;-78
2021/10/29 21:56:14;;;;;;;4.90;4.00;;;;;11.40;100085.00;;;;9905130;29;20661;-77
2021/10/29 22:01:16;;;;;;;6.43;4.23;;;;;11.30;100089.00;;;;9848755;30;20661;-78
2021/10/29 22:06:18;;;;;;;5.20;4.10;;;;;11.30;100073.00;;;;9854474;30;20239;-78
2021/10/29 22:11:23;;;;;;;6.63;3.90;;;;;11.40;100070.00;;;;9860389;30;20214;-78
2021/10/29 22:16:25;;;;;;;6.00;4.60;;;;;11.40;100088.00;;;;9858903;30;20208;-77
2021/10/29 22:21:27;;;;;;;6.90;4.60;;;;;11.30;100079.00;;;;9844112;30;20560;-78
2021/10/29 22:26:32;;;;;;;5.00;4.23;;;;;11.20;100066.00;;;;9849730;30;20224;-77
2021/10/29 22:31:35;;;;;;;5.70;4.63;;;;;11.20;100065.00;;;;9815064;30;20216;-77
2021/10/29 22:36:37;;;;;;;6.07;4.33;;;;;11.10;100059.00;;;;9843674;30;20208;-77
2021/10/29 22:41:39;;;;;;;8.17;4.37;;;;;11.00;100044.00;;;;9807616;30;20618;-78
2021/10/29 22:46:41;;;;;;;7.13;4.67;;;;;11.00;100047.00;;;;9866497;30;20254;-78
2021/10/29 22:51:43;;;;;;;7.83;4.43;;;;;11.00;100032.00;;;;9858413;30;20204;-78
2021/10/29 22:56:45;;;;;;;7.23;5.20;;;;;11.00;100027.00;;;;9837639;30;20196;-78
2021/10/29 23:01:47;;;;;;;5.50;4.57;;;;;11.00;100027.00;;;;9866416;30;20219;-78
2021/10/29 23:06:49;;;;;;;7.80;5.33;;;;;11.00;100034.00;;;;9828195;30;20217;-78
2021/10/29 23:11:51;;;;;;;7.10;5.37;;;;;10.90;100031.00;;;;9829069;30;20207;-78
2021/10/29 23:16:53;;;;;;;9.83;4.63;;;;;10.90;100029.00;;;;9827174;30;20197;-79
2021/10/29 23:21:55;;;;;;;6.97;5.60;;;;;10.90;100006.00;;;;9835286;30;20292;-78
2021/10/29 23:26:57;;;;;;;7.23;5.40;;;;;10.80;100017.00;;;;9835109;30;20230;-77
2021/10/29 23:31:59;;;;;;;8.50;5.87;;;;;10.80;100023.00;;;;9842034;30;20593;-78
2021/10/29 23:37:01;;;;;;;6.83;6.00;;;;;10.90;100019.00;;;;9857370;30;20204;-78
2021/10/29 23:42:04;;;;;;;7.63;5.77;;;;;10.90;100012.00;;;;9856837;30;20257;-77
2021/10/29 23:47:06;;;;;;;7.50;5.40;;;;;10.80;100015.00;;;;9842188;30;20235;-78
2021/10/29 23:52:08;;;;;;;7.50;4.87;;;;;10.70;100006.00;;;;9827578;30;20669;-78
2021/10/29 23:57:10;;;;;;;9.93;5.57;;;;;10.60;99996.00;;;;9871144;30;20250;-78
